sensor_id;sensor_type;location;lat;lon;timestamp;P1;durP1;ratioP1;P2;durP2;ratioP2
71558;SDS011;59382;43.852;25.952;2022-09-09T00:00:30;5.72;;;1.88;;
71558;SDS011;59382;43.852;25.952;2022-09-09T00:03:12;2.10;;;1.90;;
71558;SDS011;59382;43.852;25.952;2022-09-09T00:09:28;1.63;;;1.52;;
71558;SDS011;59382;43.852;25.952;2022-09-09T00:11:52;2.53;;;1.60;;
71558;SDS011;59382;43.852;25.952;2022-09-09T00:14:37;2.85;;;1.40;;
71558;SDS011;59382;43.852;25.952;2022-09-09T00:17:09;3.10;;;1.80;;
71558;SDS011;59382;43.852;25.952;2022-09-09T00:22:22;2.45;;;1.98;;
71558;SDS011;59382;43.852;25.952;2022-09-09T00:24:52;6.47;;;1.70;;
71558;SDS011;59382;43.852;25.952;2022-09-09T00:27:30;3.60;;;1.70;;
71558;SDS011;59382;43.852;25.952;2022-09-09T00:32:38;3.97;;;1.95;;
71558;SDS011;59382;43.852;25.952;2022-09-09T00:37:47;4.43;;;1.70;;
71558;SDS011;59382;43.852;25.952;2022-09-09T00:40:27;2.67;;;1.60;;
71558;SDS011;59382;43.852;25.952;2022-09-09T00:43:09;1.90;;;1.73;;
71558;SDS011;59382;43.852;25.952;2022-09-09T00:48:44;2.80;;;1.80;;
71558;SDS011;59382;43.852;25.952;2022-09-09T00:51:17;2.03;;;1.70;;
71558;SDS011;59382;43.852;25.952;2022-09-09T00:56:25;4.80;;;1.90;;
71558;SDS011;59382;43.852;25.952;2022-09-09T00:59:20;3.15;;;1.70;;
71558;SDS011;59382;43.852;25.952;2022-09-09T01:02:02;2.95;;;2.05;;
71558;SDS011;59382;43.852;25.952;2022-09-09T01:04:53;2.47;;;2.05;;
71558;SDS011;59382;43.852;25.952;2022-09-09T01:07:20;2.30;;;1.63;;
71558;SDS011;59382;43.852;25.952;2022-09-09T01:09:54;1.98;;;1.88;;
71558;SDS011;59382;43.852;25.952;2022-09-09T01:12:41;1.95;;;1.67;;
71558;SDS011;59382;43.852;25.952;2022-09-09T01:15:19;12.30;;;2.05;;
71558;SDS011;59382;43.852;25.952;2022-09-09T01:18:08;4.45;;;1.65;;
71558;SDS011;59382;43.852;25.952;2022-09-09T01:23:38;1.77;;;1.67;;
71558;SDS011;59382;43.852;25.952;2022-09-09T01:26:31;1.98;;;1.77;;
71558;SDS011;59382;43.852;25.952;2022-09-09T01:29:08;3.75;;;1.60;;
71558;SDS011;59382;43.852;25.952;2022-09-09T01:31:37;2.50;;;2.25;;
71558;SDS011;59382;43.852;25.952;2022-09-09T01:34:13;3.08;;;1.70;;
71558;SDS011;59382;43.852;25.952;2022-09-09T01:36:52;3.30;;;1.77;;
71558;SDS011;59382;43.852;25.952;2022-09-09T01:39:24;3.80;;;1.80;;
71558;SDS011;59382;43.852;25.952;2022-09-09T01:41:51;1.92;;;1.73;;
71558;SDS011;59382;43.852;25.952;2022-09-09T01:44:18;2.05;;;1.70;;
71558;SDS011;59382;43.852;25.952;2022-09-09T01:46:44;3.90;;;1.98;;
71558;SDS011;59382;43.852;25.952;2022-09-09T01:49:10;2.90;;;1.80;;
71558;SDS011;59382;43.852;25.952;2022-09-09T01:51:36;3.95;;;2.30;;
71558;SDS011;59382;43.852;25.952;2022-09-09T01:54:04;1.60;;;1.50;;
71558;SDS011;59382;43.852;25.952;2022-09-09T01:56:40;2.33;;;1.75;;
71558;SDS011;59382;43.852;25.952;2022-09-09T02:02:09;3.22;;;2.30;;
71558;SDS011;59382;43.852;25.952;2022-09-09T02:04:49;2.70;;;1.83;;
71558;SDS011;59382;43.852;25.952;2022-09-09T02:10:02;1.80;;;1.70;;
71558;SDS011;59382;43.852;25.952;2022-09-09T02:12:43;1.70;;;1.58;;
71558;SDS011;59382;43.852;25.952;2022-09-09T02:15:16;2.03;;;1.80;;
71558;SDS011;59382;43.852;25.952;2022-09-09T02:17:49;5.50;;;2.10;;
71558;SDS011;59382;43.852;25.952;2022-09-09T02:20:20;1.80;;;1.70;;
71558;SDS011;59382;43.852;25.952;2022-09-09T02:22:49;2.80;;;2.03;;
71558;SDS011;59382;43.852;25.952;2022-09-09T02:25:17;2.70;;;1.75;;
71558;SDS011;59382;43.852;25.952;2022-09-09T02:27:45;1.90;;;1.75;;
71558;SDS011;59382;43.852;25.952;2022-09-09T02:30:12;7.20;;;2.63;;
71558;SDS011;59382;43.852;25.952;2022-09-09T02:32:40;7.22;;;2.78;;
71558;SDS011;59382;43.852;25.952;2022-09-09T02:35:09;7.50;;;1.88;;
71558;SDS011;59382;43.852;25.952;2022-09-09T02:37:39;6.18;;;2.33;;
71558;SDS011;59382;43.852;25.952;2022-09-09T02:40:07;1.67;;;1.58;;
71558;SDS011;59382;43.852;25.952;2022-09-09T02:42:41;2.00;;;1.75;;
71558;SDS011;59382;43.852;25.952;2022-09-09T02:45:10;5.13;;;1.95;;
71558;SDS011;59382;43.852;25.952;2022-09-09T02:47:41;5.25;;;2.05;;
71558;SDS011;59382;43.852;25.952;2022-09-09T02:50:34;4.03;;;2.20;;
71558;SDS011;59382;43.852;25.952;2022-09-09T02:53:19;2.75;;;1.75;;
71558;SDS011;59382;43.852;25.952;2022-09-09T02:55:51;1.73;;;1.58;;
71558;SDS011;59382;43.852;25.952;2022-09-09T02:58:22;2.10;;;1.90;;
71558;SDS011;59382;43.852;25.952;2022-09-09T03:00:50;17.10;;;3.50;;
71558;SDS011;59382;43.852;25.952;2022-09-09T03:03:16;9.57;;;3.25;;
71558;SDS011;59382;43.852;25.952;2022-09-09T03:05:44;2.55;;;1.90;;
71558;SDS011;59382;43.852;25.952;2022-09-09T03:08:11;2.95;;;1.83;;
71558;SDS011;59382;43.852;25.952;2022-09-09T03:10:38;4.20;;;1.98;;
71558;SDS011;59382;43.852;25.952;2022-09-09T03:13:03;3.03;;;1.75;;
71558;SDS011;59382;43.852;25.952;2022-09-09T03:15:30;2.80;;;1.65;;
71558;SDS011;59382;43.852;25.952;2022-09-09T03:17:57;3.60;;;1.85;;
71558;SDS011;59382;43.852;25.952;2022-09-09T03:20:24;3.85;;;1.73;;
71558;SDS011;59382;43.852;25.952;2022-09-09T03:22:52;2.10;;;1.85;;
71558;SDS011;59382;43.852;25.952;2022-09-09T03:25:18;2.75;;;1.75;;
71558;SDS011;59382;43.852;25.952;2022-09-09T03:27:44;3.17;;;1.88;;
71558;SDS011;59382;43.852;25.952;2022-09-09T03:30:10;2.22;;;1.55;;
71558;SDS011;59382;43.852;25.952;2022-09-09T03:32:36;3.13;;;1.77;;
71558;SDS011;59382;43.852;25.952;2022-09-09T03:35:02;3.80;;;2.10;;
71558;SDS011;59382;43.852;25.952;2022-09-09T03:37:28;2.45;;;2.15;;
71558;SDS011;59382;43.852;25.952;2022-09-09T03:39:53;3.65;;;2.00;;
71558;SDS011;59382;43.852;25.952;2022-09-09T03:42:22;2.60;;;2.08;;
71558;SDS011;59382;43.852;25.952;2022-09-09T03:44:48;8.43;;;2.65;;
71558;SDS011;59382;43.852;25.952;2022-09-09T03:47:15;2.20;;;1.95;;
71558;SDS011;59382;43.852;25.952;2022-09-09T03:49:42;3.58;;;2.03;;
71558;SDS011;59382;43.852;25.952;2022-09-09T03:52:08;4.95;;;2.17;;
71558;SDS011;59382;43.852;25.952;2022-09-09T03:54:34;3.22;;;2.03;;
71558;SDS011;59382;43.852;25.952;2022-09-09T03:57:00;2.10;;;1.90;;
71558;SDS011;59382;43.852;25.952;2022-09-09T03:59:27;8.15;;;2.72;;
71558;SDS011;59382;43.852;25.952;2022-09-09T04:01:55;4.57;;;3.10;;
71558;SDS011;59382;43.852;25.952;2022-09-09T04:04:22;3.95;;;1.95;;
71558;SDS011;59382;43.852;25.952;2022-09-09T04:06:48;2.03;;;1.70;;
71558;SDS011;59382;43.852;25.952;2022-09-09T04:09:14;5.75;;;2.78;;
71558;SDS011;59382;43.852;25.952;2022-09-09T04:12:00;8.45;;;2.47;;
71558;SDS011;59382;43.852;25.952;2022-09-09T04:14:26;5.25;;;2.53;;
71558;SDS011;59382;43.852;25.952;2022-09-09T04:16:59;4.40;;;2.80;;
71558;SDS011;59382;43.852;25.952;2022-09-09T04:19:38;6.80;;;2.55;;
71558;SDS011;59382;43.852;25.952;2022-09-09T04:22:06;5.57;;;2.33;;
71558;SDS011;59382;43.852;25.952;2022-09-09T04:24:46;3.38;;;2.60;;
71558;SDS011;59382;43.852;25.952;2022-09-09T04:27:14;3.03;;;2.30;;
71558;SDS011;59382;43.852;25.952;2022-09-09T04:29:40;3.28;;;2.20;;
71558;SDS011;59382;43.852;25.952;2022-09-09T04:32:10;17.23;;;2.92;;
71558;SDS011;59382;43.852;25.952;2022-09-09T04:34:39;3.28;;;2.13;;
71558;SDS011;59382;43.852;25.952;2022-09-09T04:37:13;6.05;;;2.30;;
71558;SDS011;59382;43.852;25.952;2022-09-09T04:39:39;5.95;;;2.35;;
71558;SDS011;59382;43.852;25.952;2022-09-09T04:42:04;5.35;;;2.20;;
71558;SDS011;59382;43.852;25.952;2022-09-09T04:44:30;10.65;;;2.20;;
71558;SDS011;59382;43.852;25.952;2022-09-09T04:46:56;7.82;;;2.30;;
71558;SDS011;59382;43.852;25.952;2022-09-09T04:49:24;6.53;;;2.35;;
71558;SDS011;59382;43.852;25.952;2022-09-09T04:51:52;3.78;;;2.35;;
71558;SDS011;59382;43.852;25.952;2022-09-09T04:54:20;11.90;;;2.63;;
71558;SDS011;59382;43.852;25.952;2022-09-09T04:56:50;3.63;;;2.47;;
71558;SDS011;59382;43.852;25.952;2022-09-09T04:59:16;4.95;;;2.55;;
71558;SDS011;59382;43.852;25.952;2022-09-09T05:01:42;6.13;;;2.40;;
71558;SDS011;59382;43.852;25.952;2022-09-09T05:04:08;5.18;;;2.15;;
71558;SDS011;59382;43.852;25.952;2022-09-09T05:06:36;9.27;;;2.35;;
71558;SDS011;59382;43.852;25.952;2022-09-09T05:09:02;7.72;;;2.13;;
71558;SDS011;59382;43.852;25.952;2022-09-09T05:11:28;7.20;;;2.35;;
71558;SDS011;59382;43.852;25.952;2022-09-09T05:13:58;4.75;;;2.17;;
71558;SDS011;59382;43.852;25.952;2022-09-09T05:16:24;5.30;;;2.25;;
71558;SDS011;59382;43.852;25.952;2022-09-09T05:18:50;10.90;;;3.47;;
71558;SDS011;59382;43.852;25.952;2022-09-09T05:21:16;10.75;;;2.60;;
71558;SDS011;59382;43.852;25.952;2022-09-09T05:23:47;6.15;;;2.58;;
71558;SDS011;59382;43.852;25.952;2022-09-09T05:26:17;16.77;;;3.13;;
71558;SDS011;59382;43.852;25.952;2022-09-09T05:28:46;7.63;;;2.22;;
71558;SDS011;59382;43.852;25.952;2022-09-09T05:31:13;4.93;;;2.05;;
71558;SDS011;59382;43.852;25.952;2022-09-09T05:33:45;6.55;;;2.80;;
71558;SDS011;59382;43.852;25.952;2022-09-09T05:36:18;16.80;;;3.63;;
71558;SDS011;59382;43.852;25.952;2022-09-09T05:38:47;7.63;;;2.50;;
71558;SDS011;59382;43.852;25.952;2022-09-09T05:41:14;3.75;;;2.80;;
71558;SDS011;59382;43.852;25.952;2022-09-09T05:43:41;7.97;;;2.53;;
71558;SDS011;59382;43.852;25.952;2022-09-09T05:46:10;7.78;;;2.38;;
71558;SDS011;59382;43.852;25.952;2022-09-09T05:48:40;6.63;;;2.38;;
71558;SDS011;59382;43.852;25.952;2022-09-09T05:51:08;8.73;;;3.25;;
71558;SDS011;59382;43.852;25.952;2022-09-09T05:53:43;13.60;;;4.43;;
71558;SDS011;59382;43.852;25.952;2022-09-09T05:56:19;8.95;;;3.00;;
71558;SDS011;59382;43.852;25.952;2022-09-09T05:58:47;6.93;;;2.10;;
71558;SDS011;59382;43.852;25.952;2022-09-09T06:03:47;10.38;;;3.45;;
71558;SDS011;59382;43.852;25.952;2022-09-09T06:06:15;8.93;;;2.60;;
71558;SDS011;59382;43.852;25.952;2022-09-09T06:08:43;5.72;;;2.70;;
71558;SDS011;59382;43.852;25.952;2022-09-09T06:11:23;8.85;;;2.55;;
71558;SDS011;59382;43.852;25.952;2022-09-09T06:13:56;8.25;;;2.58;;
71558;SDS011;59382;43.852;25.952;2022-09-09T06:16:23;7.15;;;2.65;;
71558;SDS011;59382;43.852;25.952;2022-09-09T06:18:52;3.83;;;2.10;;
71558;SDS011;59382;43.852;25.952;2022-09-09T06:24:24;3.95;;;2.30;;
71558;SDS011;59382;43.852;25.952;2022-09-09T06:30:03;9.88;;;2.80;;
71558;SDS011;59382;43.852;25.952;2022-09-09T06:33:03;7.35;;;2.42;;
71558;SDS011;59382;43.852;25.952;2022-09-09T06:35:39;6.20;;;2.13;;
71558;SDS011;59382;43.852;25.952;2022-09-09T06:38:21;7.22;;;2.35;;
71558;SDS011;59382;43.852;25.952;2022-09-09T06:40:55;7.32;;;2.20;;
71558;SDS011;59382;43.852;25.952;2022-09-09T06:43:25;6.15;;;1.88;;
71558;SDS011;59382;43.852;25.952;2022-09-09T06:46:05;4.15;;;1.90;;
71558;SDS011;59382;43.852;25.952;2022-09-09T06:48:43;3.63;;;1.80;;
71558;SDS011;59382;43.852;25.952;2022-09-09T06:54:17;3.80;;;2.05;;
71558;SDS011;59382;43.852;25.952;2022-09-09T06:56:47;5.03;;;2.50;;
71558;SDS011;59382;43.852;25.952;2022-09-09T06:59:15;4.63;;;1.92;;
71558;SDS011;59382;43.852;25.952;2022-09-09T07:01:41;6.70;;;1.80;;
71558;SDS011;59382;43.852;25.952;2022-09-09T07:04:15;13.82;;;2.20;;
71558;SDS011;59382;43.852;25.952;2022-09-09T07:06:44;8.27;;;2.70;;
71558;SDS011;59382;43.852;25.952;2022-09-09T07:15:18;7.75;;;4.65;;
71558;SDS011;59382;43.852;25.952;2022-09-09T07:17:44;4.57;;;2.92;;
71558;SDS011;59382;43.852;25.952;2022-09-09T07:20:10;2.38;;;2.10;;
71558;SDS011;59382;43.852;25.952;2022-09-09T07:22:45;13.80;;;3.85;;
71558;SDS011;59382;43.852;25.952;2022-09-09T07:25:14;4.20;;;2.60;;
71558;SDS011;59382;43.852;25.952;2022-09-09T07:27:47;2.97;;;2.40;;
71558;SDS011;59382;43.852;25.952;2022-09-09T07:30:19;7.95;;;2.65;;
71558;SDS011;59382;43.852;25.952;2022-09-09T07:32:44;8.30;;;2.45;;
71558;SDS011;59382;43.852;25.952;2022-09-09T07:35:10;2.60;;;2.00;;
71558;SDS011;59382;43.852;25.952;2022-09-09T07:37:36;4.80;;;1.88;;
71558;SDS011;59382;43.852;25.952;2022-09-09T07:40:02;3.92;;;2.08;;
71558;SDS011;59382;43.852;25.952;2022-09-09T07:42:29;9.50;;;4.47;;
71558;SDS011;59382;43.852;25.952;2022-09-09T07:44:55;4.20;;;2.50;;
71558;SDS011;59382;43.852;25.952;2022-09-09T07:47:24;3.17;;;2.22;;
71558;SDS011;59382;43.852;25.952;2022-09-09T07:49:50;4.78;;;2.08;;
71558;SDS011;59382;43.852;25.952;2022-09-09T07:52:15;6.43;;;2.95;;
71558;SDS011;59382;43.852;25.952;2022-09-09T07:54:48;5.63;;;2.30;;
71558;SDS011;59382;43.852;25.952;2022-09-09T07:57:17;3.92;;;2.50;;
71558;SDS011;59382;43.852;25.952;2022-09-09T07:59:46;5.63;;;2.70;;
71558;SDS011;59382;43.852;25.952;2022-09-09T08:02:15;13.45;;;3.95;;
71558;SDS011;59382;43.852;25.952;2022-09-09T08:04:41;9.70;;;2.42;;
71558;SDS011;59382;43.852;25.952;2022-09-09T08:07:07;7.15;;;2.72;;
71558;SDS011;59382;43.852;25.952;2022-09-09T08:09:33;6.95;;;2.65;;
71558;SDS011;59382;43.852;25.952;2022-09-09T08:12:03;8.60;;;3.03;;
71558;SDS011;59382;43.852;25.952;2022-09-09T08:14:30;4.65;;;2.20;;
71558;SDS011;59382;43.852;25.952;2022-09-09T08:17:01;13.05;;;3.45;;
71558;SDS011;59382;43.852;25.952;2022-09-09T08:19:30;7.57;;;2.88;;
71558;SDS011;59382;43.852;25.952;2022-09-09T08:21:59;6.10;;;2.67;;
71558;SDS011;59382;43.852;25.952;2022-09-09T08:24:28;12.15;;;2.70;;
71558;SDS011;59382;43.852;25.952;2022-09-09T08:27:12;4.63;;;2.55;;
71558;SDS011;59382;43.852;25.952;2022-09-09T08:29:41;14.90;;;3.83;;
71558;SDS011;59382;43.852;25.952;2022-09-09T08:32:10;4.65;;;2.33;;
71558;SDS011;59382;43.852;25.952;2022-09-09T08:34:44;16.70;;;2.78;;
71558;SDS011;59382;43.852;25.952;2022-09-09T08:37:10;2.33;;;2.10;;
71558;SDS011;59382;43.852;25.952;2022-09-09T08:39:36;3.83;;;2.42;;
71558;SDS011;59382;43.852;25.952;2022-09-09T08:47:23;3.00;;;2.50;;
71558;SDS011;59382;43.852;25.952;2022-09-09T08:58:19;5.38;;;2.20;;
71558;SDS011;59382;43.852;25.952;2022-09-09T09:12:32;5.32;;;2.80;;
71558;SDS011;59382;43.852;25.952;2022-09-09T09:15:08;2.35;;;2.15;;
71558;SDS011;59382;43.852;25.952;2022-09-09T09:17:55;7.63;;;2.67;;
71558;SDS011;59382;43.852;25.952;2022-09-09T09:21:05;5.30;;;2.50;;
71558;SDS011;59382;43.852;25.952;2022-09-09T09:23:16;2.67;;;2.30;;
71558;SDS011;59382;43.852;25.952;2022-09-09T09:25:48;2.85;;;2.25;;
71558;SDS011;59382;43.852;25.952;2022-09-09T09:28:24;4.80;;;2.55;;
71558;SDS011;59382;43.852;25.952;2022-09-09T09:33:50;9.27;;;3.10;;
71558;SDS011;59382;43.852;25.952;2022-09-09T09:36:44;3.85;;;2.90;;
71558;SDS011;59382;43.852;25.952;2022-09-09T09:39:40;13.65;;;3.08;;
71558;SDS011;59382;43.852;25.952;2022-09-09T09:48:13;4.50;;;2.80;;
71558;SDS011;59382;43.852;25.952;2022-09-09T09:50:53;5.18;;;2.40;;
71558;SDS011;59382;43.852;25.952;2022-09-09T09:53:30;4.22;;;3.08;;
71558;SDS011;59382;43.852;25.952;2022-09-09T09:56:16;8.02;;;4.40;;
71558;SDS011;59382;43.852;25.952;2022-09-09T09:58:54;6.22;;;2.55;;
71558;SDS011;59382;43.852;25.952;2022-09-09T10:01:22;5.30;;;2.15;;
71558;SDS011;59382;43.852;25.952;2022-09-09T10:04:12;3.20;;;2.40;;
71558;SDS011;59382;43.852;25.952;2022-09-09T10:06:58;4.13;;;2.78;;
71558;SDS011;59382;43.852;25.952;2022-09-09T10:09:42;6.60;;;2.72;;
71558;SDS011;59382;43.852;25.952;2022-09-09T10:12:19;6.38;;;2.90;;
71558;SDS011;59382;43.852;25.952;2022-09-09T10:34:12;4.57;;;3.10;;
71558;SDS011;59382;43.852;25.952;2022-09-09T10:37:11;4.75;;;2.85;;
71558;SDS011;59382;43.852;25.952;2022-09-09T10:39:50;8.80;;;2.28;;
71558;SDS011;59382;43.852;25.952;2022-09-09T10:42:29;8.02;;;2.83;;
71558;SDS011;59382;43.852;25.952;2022-09-09T10:45:20;9.40;;;2.70;;
71558;SDS011;59382;43.852;25.952;2022-09-09T10:56:12;4.20;;;2.25;;
71558;SDS011;59382;43.852;25.952;2022-09-09T11:04:21;4.68;;;2.15;;
71558;SDS011;59382;43.852;25.952;2022-09-09T11:06:52;4.95;;;2.35;;
71558;SDS011;59382;43.852;25.952;2022-09-09T11:09:22;2.25;;;1.98;;
71558;SDS011;59382;43.852;25.952;2022-09-09T11:11:55;6.45;;;3.00;;
71558;SDS011;59382;43.852;25.952;2022-09-09T11:19:44;3.50;;;2.35;;
71558;SDS011;59382;43.852;25.952;2022-09-09T11:27:56;5.93;;;2.47;;
71558;SDS011;59382;43.852;25.952;2022-09-09T11:36:51;3.22;;;2.30;;
71558;SDS011;59382;43.852;25.952;2022-09-09T11:39:46;8.43;;;2.30;;
71558;SDS011;59382;43.852;25.952;2022-09-09T11:42:20;3.20;;;2.42;;
71558;SDS011;59382;43.852;25.952;2022-09-09T11:44:54;5.68;;;2.70;;
71558;SDS011;59382;43.852;25.952;2022-09-09T11:47:27;3.28;;;2.25;;
71558;SDS011;59382;43.852;25.952;2022-09-09T11:50:07;5.05;;;2.08;;
71558;SDS011;59382;43.852;25.952;2022-09-09T11:53:03;5.65;;;2.92;;
71558;SDS011;59382;43.852;25.952;2022-09-09T11:55:41;2.63;;;2.42;;
71558;SDS011;59382;43.852;25.952;2022-09-09T12:00:41;3.22;;;2.33;;
71558;SDS011;59382;43.852;25.952;2022-09-09T12:08:37;5.00;;;3.40;;
71558;SDS011;59382;43.852;25.952;2022-09-09T12:11:08;4.68;;;2.83;;
71558;SDS011;59382;43.852;25.952;2022-09-09T12:13:37;2.90;;;2.60;;
71558;SDS011;59382;43.852;25.952;2022-09-09T12:16:27;5.80;;;3.10;;
71558;SDS011;59382;43.852;25.952;2022-09-09T12:19:04;3.55;;;2.50;;
71558;SDS011;59382;43.852;25.952;2022-09-09T12:24:32;5.20;;;2.47;;
71558;SDS011;59382;43.852;25.952;2022-09-09T12:32:39;6.18;;;3.00;;
71558;SDS011;59382;43.852;25.952;2022-09-09T12:35:22;8.02;;;3.00;;
71558;SDS011;59382;43.852;25.952;2022-09-09T12:38:09;10.80;;;2.95;;
71558;SDS011;59382;43.852;25.952;2022-09-09T12:40:53;3.78;;;2.70;;
71558;SDS011;59382;43.852;25.952;2022-09-09T12:43:34;3.72;;;2.88;;
71558;SDS011;59382;43.852;25.952;2022-09-09T12:48:39;8.73;;;2.70;;
71558;SDS011;59382;43.852;25.952;2022-09-09T12:54:12;5.22;;;3.05;;
71558;SDS011;59382;43.852;25.952;2022-09-09T12:56:44;4.75;;;2.83;;
71558;SDS011;59382;43.852;25.952;2022-09-09T12:59:48;4.75;;;2.35;;
71558;SDS011;59382;43.852;25.952;2022-09-09T13:02:22;2.40;;;2.20;;
71558;SDS011;59382;43.852;25.952;2022-09-09T13:04:51;2.75;;;2.53;;
71558;SDS011;59382;43.852;25.952;2022-09-09T13:07:19;2.92;;;2.55;;
71558;SDS011;59382;43.852;25.952;2022-09-09T13:09:53;6.72;;;2.50;;
71558;SDS011;59382;43.852;25.952;2022-09-09T13:12:24;2.88;;;2.30;;
71558;SDS011;59382;43.852;25.952;2022-09-09T13:15:10;4.05;;;2.30;;
71558;SDS011;59382;43.852;25.952;2022-09-09T13:17:48;2.55;;;2.20;;
71558;SDS011;59382;43.852;25.952;2022-09-09T13:20:20;5.47;;;2.45;;
71558;SDS011;59382;43.852;25.952;2022-09-09T13:23:08;2.50;;;2.30;;
71558;SDS011;59382;43.852;25.952;2022-09-09T13:25:40;4.63;;;3.00;;
71558;SDS011;59382;43.852;25.952;2022-09-09T13:28:20;4.78;;;2.78;;
71558;SDS011;59382;43.852;25.952;2022-09-09T13:34:28;4.22;;;2.92;;
71558;SDS011;59382;43.852;25.952;2022-09-09T13:37:12;5.50;;;2.63;;
71558;SDS011;59382;43.852;25.952;2022-09-09T13:39:53;6.72;;;2.35;;
71558;SDS011;59382;43.852;25.952;2022-09-09T13:42:27;4.85;;;2.50;;
71558;SDS011;59382;43.852;25.952;2022-09-09T13:48:54;5.55;;;3.58;;
71558;SDS011;59382;43.852;25.952;2022-09-09T13:51:34;4.82;;;3.22;;
71558;SDS011;59382;43.852;25.952;2022-09-09T13:54:03;7.60;;;3.05;;
71558;SDS011;59382;43.852;25.952;2022-09-09T13:56:31;4.80;;;2.67;;
71558;SDS011;59382;43.852;25.952;2022-09-09T13:58:57;11.10;;;2.90;;
71558;SDS011;59382;43.852;25.952;2022-09-09T14:01:23;6.07;;;2.90;;
71558;SDS011;59382;43.852;25.952;2022-09-09T14:03:49;4.75;;;2.83;;
71558;SDS011;59382;43.852;25.952;2022-09-09T14:06:16;5.50;;;2.95;;
71558;SDS011;59382;43.852;25.952;2022-09-09T14:08:43;5.93;;;4.57;;
71558;SDS011;59382;43.852;25.952;2022-09-09T14:11:12;6.00;;;3.30;;
71558;SDS011;59382;43.852;25.952;2022-09-09T14:13:38;2.85;;;2.47;;
71558;SDS011;59382;43.852;25.952;2022-09-09T14:16:04;8.82;;;2.90;;
71558;SDS011;59382;43.852;25.952;2022-09-09T14:18:30;13.48;;;3.40;;
71558;SDS011;59382;43.852;25.952;2022-09-09T14:20:55;3.90;;;2.70;;
71558;SDS011;59382;43.852;25.952;2022-09-09T14:23:22;9.00;;;3.10;;
71558;SDS011;59382;43.852;25.952;2022-09-09T14:25:49;6.72;;;2.95;;
71558;SDS011;59382;43.852;25.952;2022-09-09T14:28:16;3.53;;;3.00;;
71558;SDS011;59382;43.852;25.952;2022-09-09T14:30:43;6.22;;;3.20;;
71558;SDS011;59382;43.852;25.952;2022-09-09T14:33:13;3.30;;;2.80;;
71558;SDS011;59382;43.852;25.952;2022-09-09T14:35:40;3.33;;;3.00;;
71558;SDS011;59382;43.852;25.952;2022-09-09T14:38:09;5.97;;;3.15;;
71558;SDS011;59382;43.852;25.952;2022-09-09T14:40:35;4.50;;;2.90;;
71558;SDS011;59382;43.852;25.952;2022-09-09T14:43:02;3.70;;;2.85;;
71558;SDS011;59382;43.852;25.952;2022-09-09T14:45:29;9.95;;;2.83;;
71558;SDS011;59382;43.852;25.952;2022-09-09T14:47:55;8.32;;;2.53;;
71558;SDS011;59382;43.852;25.952;2022-09-09T14:50:21;9.75;;;3.78;;
71558;SDS011;59382;43.852;25.952;2022-09-09T14:52:47;9.35;;;3.55;;
71558;SDS011;59382;43.852;25.952;2022-09-09T14:55:24;6.18;;;2.97;;
71558;SDS011;59382;43.852;25.952;2022-09-09T14:57:56;8.30;;;2.85;;
71558;SDS011;59382;43.852;25.952;2022-09-09T15:03:20;16.13;;;3.85;;
71558;SDS011;59382;43.852;25.952;2022-09-09T15:05:50;10.60;;;4.15;;
71558;SDS011;59382;43.852;25.952;2022-09-09T15:08:16;9.82;;;3.70;;
71558;SDS011;59382;43.852;25.952;2022-09-09T15:10:48;12.85;;;4.07;;
71558;SDS011;59382;43.852;25.952;2022-09-09T15:13:26;9.93;;;4.10;;
71558;SDS011;59382;43.852;25.952;2022-09-09T15:15:54;5.30;;;3.30;;
71558;SDS011;59382;43.852;25.952;2022-09-09T15:18:20;18.58;;;4.88;;
71558;SDS011;59382;43.852;25.952;2022-09-09T15:20:46;13.70;;;4.07;;
71558;SDS011;59382;43.852;25.952;2022-09-09T15:23:15;7.88;;;2.95;;
71558;SDS011;59382;43.852;25.952;2022-09-09T15:25:51;10.27;;;4.63;;
71558;SDS011;59382;43.852;25.952;2022-09-09T15:28:23;18.35;;;6.15;;
71558;SDS011;59382;43.852;25.952;2022-09-09T15:30:51;15.30;;;7.97;;
71558;SDS011;59382;43.852;25.952;2022-09-09T15:33:18;12.93;;;6.38;;
71558;SDS011;59382;43.852;25.952;2022-09-09T15:35:44;11.60;;;4.80;;
71558;SDS011;59382;43.852;25.952;2022-09-09T15:38:10;15.23;;;4.68;;
71558;SDS011;59382;43.852;25.952;2022-09-09T15:40:41;7.97;;;4.57;;
71558;SDS011;59382;43.852;25.952;2022-09-09T15:43:07;9.18;;;4.65;;
71558;SDS011;59382;43.852;25.952;2022-09-09T15:45:35;9.25;;;4.07;;
71558;SDS011;59382;43.852;25.952;2022-09-09T15:48:02;8.80;;;4.75;;
71558;SDS011;59382;43.852;25.952;2022-09-09T15:50:28;8.13;;;4.78;;
71558;SDS011;59382;43.852;25.952;2022-09-09T15:52:56;8.07;;;5.47;;
71558;SDS011;59382;43.852;25.952;2022-09-09T15:55:22;9.73;;;5.30;;
71558;SDS011;59382;43.852;25.952;2022-09-09T15:57:49;11.95;;;5.95;;
71558;SDS011;59382;43.852;25.952;2022-09-09T16:00:14;7.90;;;4.40;;
71558;SDS011;59382;43.852;25.952;2022-09-09T16:02:40;7.47;;;5.38;;
71558;SDS011;59382;43.852;25.952;2022-09-09T16:05:06;8.50;;;5.32;;
71558;SDS011;59382;43.852;25.952;2022-09-09T16:07:32;8.75;;;4.97;;
71558;SDS011;59382;43.852;25.952;2022-09-09T16:09:59;14.07;;;4.85;;
71558;SDS011;59382;43.852;25.952;2022-09-09T16:12:25;8.52;;;5.30;;
71558;SDS011;59382;43.852;25.952;2022-09-09T16:14:54;8.85;;;4.25;;
71558;SDS011;59382;43.852;25.952;2022-09-09T16:17:20;11.32;;;4.95;;
71558;SDS011;59382;43.852;25.952;2022-09-09T16:19:46;8.00;;;5.40;;
71558;SDS011;59382;43.852;25.952;2022-09-09T16:22:12;11.05;;;4.70;;
71558;SDS011;59382;43.852;25.952;2022-09-09T16:24:40;17.55;;;4.72;;
71558;SDS011;59382;43.852;25.952;2022-09-09T16:27:06;8.27;;;4.57;;
71558;SDS011;59382;43.852;25.952;2022-09-09T16:29:34;17.88;;;5.28;;
71558;SDS011;59382;43.852;25.952;2022-09-09T16:32:00;12.15;;;4.45;;
71558;SDS011;59382;43.852;25.952;2022-09-09T16:34:26;5.55;;;4.05;;
71558;SDS011;59382;43.852;25.952;2022-09-09T16:36:51;8.30;;;3.55;;
71558;SDS011;59382;43.852;25.952;2022-09-09T16:39:18;10.30;;;5.07;;
71558;SDS011;59382;43.852;25.952;2022-09-09T16:41:45;14.80;;;5.85;;
71558;SDS011;59382;43.852;25.952;2022-09-09T16:44:13;9.70;;;4.13;;
71558;SDS011;59382;43.852;25.952;2022-09-09T16:46:42;11.23;;;4.82;;
71558;SDS011;59382;43.852;25.952;2022-09-09T16:49:09;6.93;;;3.83;;
71558;SDS011;59382;43.852;25.952;2022-09-09T16:51:46;5.37;;;3.77;;
71558;SDS011;59382;43.852;25.952;2022-09-09T16:54:14;13.18;;;7.28;;
71558;SDS011;59382;43.852;25.952;2022-09-09T16:56:42;7.38;;;4.15;;
71558;SDS011;59382;43.852;25.952;2022-09-09T16:59:10;8.00;;;3.83;;
71558;SDS011;59382;43.852;25.952;2022-09-09T17:01:40;9.88;;;3.60;;
71558;SDS011;59382;43.852;25.952;2022-09-09T17:04:09;7.20;;;3.22;;
71558;SDS011;59382;43.852;25.952;2022-09-09T17:06:36;4.93;;;3.30;;
71558;SDS011;59382;43.852;25.952;2022-09-09T17:09:07;12.90;;;3.85;;
71558;SDS011;59382;43.852;25.952;2022-09-09T17:11:37;8.82;;;4.53;;
71558;SDS011;59382;43.852;25.952;2022-09-09T17:14:08;10.93;;;4.93;;
71558;SDS011;59382;43.852;25.952;2022-09-09T17:16:38;16.02;;;6.13;;
71558;SDS011;59382;43.852;25.952;2022-09-09T17:19:06;13.63;;;4.45;;
71558;SDS011;59382;43.852;25.952;2022-09-09T17:21:34;11.88;;;4.15;;
71558;SDS011;59382;43.852;25.952;2022-09-09T17:23:59;8.55;;;4.65;;
71558;SDS011;59382;43.852;25.952;2022-09-09T17:26:26;5.60;;;3.65;;
71558;SDS011;59382;43.852;25.952;2022-09-09T17:28:57;8.50;;;4.13;;
71558;SDS011;59382;43.852;25.952;2022-09-09T17:31:23;10.45;;;4.50;;
71558;SDS011;59382;43.852;25.952;2022-09-09T17:33:51;8.45;;;3.90;;
71558;SDS011;59382;43.852;25.952;2022-09-09T17:36:21;10.40;;;4.80;;
71558;SDS011;59382;43.852;25.952;2022-09-09T17:38:49;11.73;;;4.05;;